createdAt,value
2023-01-23T00:00:02.253Z,42.05
2023-01-23T00:01:02.226Z,40.36
2023-01-23T00:02:02.224Z,41.38
2023-01-23T00:03:02.213Z,43.10
2023-01-23T00:04:03.161Z,50.91
2023-01-23T00:05:02.251Z,54.70
2023-01-23T00:08:08.464Z,53.49
2023-01-23T00:09:09.562Z,59.74
2023-01-23T00:10:09.553Z,47.34
2023-01-23T00:11:10.347Z,46.71
2023-01-23T00:12:09.534Z,49.88
2023-01-23T00:13:09.548Z,43.27
2023-01-23T00:14:10.331Z,48.51
2023-01-23T00:15:09.523Z,55.26
2023-01-23T00:16:09.528Z,52.54
2023-01-23T00:17:10.497Z,44.15
2023-01-23T00:18:09.491Z,44.00
2023-01-23T00:19:10.432Z,47.41
2023-01-23T00:20:09.477Z,48.26
2023-01-23T00:21:10.329Z,48.36
2023-01-23T00:22:09.451Z,52.94
2023-01-23T00:23:09.445Z,58.51
2023-01-23T00:24:09.435Z,49.28
2023-01-23T00:27:16.998Z,47.47
2023-01-23T00:28:16.985Z,46.29
2023-01-23T00:29:18.724Z,50.23
2023-01-23T00:30:18.451Z,59.61
2023-01-23T00:31:18.149Z,44.26
2023-01-23T00:32:18.049Z,54.84
2023-01-23T00:33:18.038Z,42.35
2023-01-23T00:34:18.141Z,45.38
2023-01-23T00:35:18.017Z,49.19
2023-01-23T00:36:18.009Z,51.08
2023-01-23T00:37:17.999Z,47.22
2023-01-23T00:38:18.054Z,55.13
2023-01-23T00:39:18.010Z,45.75
2023-01-23T00:40:18.312Z,47.63
2023-01-23T00:41:17.979Z,50.89
2023-01-23T00:42:17.988Z,52.40
2023-01-23T00:43:17.953Z,47.56
2023-01-23T00:44:17.966Z,44.70
2023-01-23T00:45:17.943Z,43.59
2023-01-23T00:46:17.968Z,47.23
2023-01-23T00:47:17.936Z,49.55
2023-01-23T00:48:17.913Z,53.21
2023-01-23T00:49:17.945Z,54.13
2023-01-23T00:50:18.251Z,48.50
2023-01-23T00:51:18.789Z,46.03
2023-01-23T00:52:19.754Z,54.51
2023-01-23T00:53:18.728Z,55.30
2023-01-23T00:54:17.875Z,52.17
2023-01-23T00:55:17.866Z,43.72
2023-01-23T00:56:18.671Z,43.78
2023-01-23T00:57:17.942Z,44.18
2023-01-23T00:58:18.244Z,49.73
2023-01-23T00:59:18.646Z,46.82
2023-01-23T01:00:19.114Z,50.92
2023-01-23T01:01:17.856Z,45.48
2023-01-23T01:02:17.809Z,53.25
2023-01-23T01:03:17.827Z,50.40
2023-01-23T01:04:19.670Z,45.87
2023-01-23T01:05:17.784Z,54.10
2023-01-23T01:06:18.847Z,53.90
2023-01-23T01:07:17.765Z,45.76
2023-01-23T01:08:17.753Z,52.63
2023-01-23T01:09:17.745Z,47.72
2023-01-23T01:10:17.941Z,43.54
2023-01-23T01:11:17.731Z,42.58
2023-01-23T01:12:17.718Z,43.40
2023-01-23T01:13:17.724Z,44.27
2023-01-23T01:14:17.714Z,44.24
2023-01-23T01:15:17.695Z,49.47
2023-01-23T01:16:18.732Z,55.51
2023-01-23T01:17:17.684Z,47.91
2023-01-23T01:18:19.164Z,46.87
2023-01-23T01:19:17.678Z,45.60
2023-01-23T01:20:18.565Z,46.28
2023-01-23T01:21:17.649Z,44.36
2023-01-23T01:22:17.743Z,43.69
2023-01-23T01:23:18.226Z,43.48
2023-01-23T01:24:18.150Z,43.45
2023-01-23T01:25:17.659Z,50.40
2023-01-23T01:26:18.255Z,54.52
2023-01-23T01:27:21.775Z,50.47
2023-01-23T01:28:18.154Z,47.38
2023-01-23T01:29:28.280Z,56.05
2023-01-23T01:30:17.829Z,46.91
2023-01-23T01:31:19.243Z,49.84
2023-01-23T01:32:17.630Z,51.86
2023-01-23T01:33:19.875Z,60.35
2023-01-23T01:34:19.233Z,45.60
2023-01-23T01:35:19.175Z,45.33
2023-01-23T01:36:17.529Z,44.72
2023-01-23T01:37:19.665Z,44.59
2023-01-23T01:38:18.257Z,46.14
2023-01-23T01:39:17.505Z,58.66
2023-01-23T01:40:17.738Z,43.55
2023-01-23T01:41:19.241Z,46.43
2023-01-23T01:42:17.493Z,44.16
2023-01-23T01:43:17.483Z,43.80
2023-01-23T01:44:17.479Z,44.49
2023-01-23T01:45:17.459Z,45.09
2023-01-23T01:46:17.478Z,56.42
2023-01-23T01:47:17.445Z,57.41
2023-01-23T01:48:17.445Z,45.66
2023-01-23T01:49:19.175Z,53.63
2023-01-23T01:52:24.302Z,58.35
2023-01-23T01:53:24.372Z,62.50
2023-01-23T01:54:24.258Z,66.69
2023-01-23T01:55:24.255Z,52.43
2023-01-23T01:56:25.333Z,56.42
2023-01-23T01:57:25.340Z,51.88
2023-01-23T01:58:25.332Z,54.22
2023-01-23T01:59:25.319Z,55.30
2023-01-23T02:00:25.348Z,54.76
2023-01-23T02:01:25.294Z,58.59
2023-01-23T02:02:25.280Z,58.53
2023-01-23T02:03:25.275Z,60.00
2023-01-23T02:04:25.277Z,55.65
2023-01-23T02:05:26.213Z,49.88
2023-01-23T02:06:25.261Z,53.73
2023-01-23T02:07:25.251Z,53.02
2023-01-23T02:08:25.253Z,58.61
2023-01-23T02:09:25.339Z,46.87
2023-01-23T02:10:25.252Z,46.95
2023-01-23T02:11:26.149Z,48.09
2023-01-23T02:12:25.712Z,54.17
2023-01-23T02:13:25.213Z,50.92
2023-01-23T02:14:25.193Z,49.29
2023-01-23T02:15:25.197Z,46.69
2023-01-23T02:16:25.194Z,50.66
2023-01-23T02:17:25.175Z,57.71
2023-01-23T02:18:25.168Z,57.27
2023-01-23T02:19:25.164Z,52.83
2023-01-23T02:20:25.143Z,52.74
2023-01-23T02:21:25.614Z,52.20
2023-01-23T02:22:26.147Z,49.70
2023-01-23T02:23:25.127Z,58.14
2023-01-23T02:24:25.116Z,47.54
2023-01-23T02:25:25.208Z,49.93
2023-01-23T02:26:26.774Z,49.64
2023-01-23T02:27:25.093Z,56.34
2023-01-23T02:28:25.091Z,53.57
2023-01-23T02:29:25.132Z,52.39
2023-01-23T02:30:25.061Z,62.84
2023-01-23T02:31:25.130Z,48.82
2023-01-23T02:32:25.053Z,49.48
2023-01-23T02:33:25.050Z,44.74
2023-01-23T02:34:25.716Z,46.71
2023-01-23T02:35:25.030Z,51.86
2023-01-23T02:36:25.030Z,56.11
2023-01-23T02:37:25.011Z,53.34
2023-01-23T02:38:25.006Z,51.43
2023-01-23T02:39:25.026Z,50.17
2023-01-23T02:40:24.990Z,48.75
2023-01-23T02:41:26.829Z,56.41
2023-01-23T02:42:24.998Z,58.60
2023-01-23T02:43:24.966Z,55.33
2023-01-23T02:44:24.968Z,53.23
2023-01-23T02:45:24.963Z,48.03
2023-01-23T02:46:24.942Z,52.69
2023-01-23T02:47:24.957Z,53.07
2023-01-23T02:48:24.925Z,46.73
2023-01-23T02:49:24.915Z,54.93
2023-01-23T02:50:24.908Z,57.02
2023-01-23T02:51:25.963Z,45.93
2023-01-23T02:52:24.895Z,52.49
2023-01-23T02:53:24.899Z,55.41
2023-01-23T02:54:24.879Z,52.36
2023-01-23T02:55:25.717Z,57.28
2023-01-23T02:56:24.873Z,57.82
2023-01-23T02:57:24.959Z,60.94
2023-01-23T02:58:25.643Z,56.15
2023-01-23T02:59:24.846Z,54.76
2023-01-23T03:00:24.835Z,59.62
2023-01-23T03:01:24.824Z,59.88
2023-01-23T03:02:24.905Z,62.12
2023-01-23T03:03:24.824Z,59.83
2023-01-23T03:04:24.804Z,58.53
2023-01-23T03:05:24.815Z,57.68
2023-01-23T03:06:24.791Z,56.28
2023-01-23T03:07:24.792Z,59.64
2023-01-23T03:08:25.719Z,50.91
2023-01-23T03:09:24.765Z,54.15
2023-01-23T03:10:24.824Z,54.11
2023-01-23T03:13:31.615Z,57.17
2023-01-23T03:14:31.616Z,52.48
2023-01-23T03:15:32.714Z,59.71
2023-01-23T03:16:32.775Z,52.10
2023-01-23T03:17:32.668Z,57.13
2023-01-23T03:18:35.965Z,56.59
2023-01-23T03:19:33.650Z,57.34
2023-01-23T03:20:32.685Z,50.10
2023-01-23T03:21:32.638Z,57.94
2023-01-23T03:22:32.630Z,55.19
2023-01-23T03:23:32.633Z,50.36
2023-01-23T03:24:32.611Z,59.01
2023-01-23T03:25:32.609Z,60.40
2023-01-23T03:26:32.618Z,60.65
2023-01-23T03:27:32.588Z,56.11
2023-01-23T03:28:32.686Z,56.84
2023-01-23T03:29:32.581Z,57.81
2023-01-23T03:30:32.589Z,53.49
2023-01-23T03:31:32.645Z,58.25
2023-01-23T03:32:32.568Z,58.90
2023-01-23T03:33:32.552Z,59.77
2023-01-23T03:34:32.547Z,51.08
2023-01-23T03:35:32.544Z,50.86
2023-01-23T03:36:32.525Z,51.86
2023-01-23T03:37:32.514Z,59.65
2023-01-23T03:38:32.508Z,53.01
2023-01-23T03:39:33.506Z,58.48
2023-01-23T03:40:32.492Z,54.78
2023-01-23T03:41:32.485Z,58.61
2023-01-23T03:42:32.473Z,62.16
2023-01-23T03:43:33.464Z,56.68
2023-01-23T03:44:32.553Z,60.94
2023-01-23T03:45:32.485Z,58.80
2023-01-23T03:46:32.449Z,58.79
2023-01-23T03:47:32.435Z,60.05
2023-01-23T03:48:32.437Z,62.48
2023-01-23T03:49:32.980Z,58.63
2023-01-23T03:50:32.429Z,54.45
2023-01-23T03:51:32.402Z,62.05
2023-01-23T03:52:32.402Z,52.43
2023-01-23T03:53:33.377Z,63.29
2023-01-23T03:54:32.375Z,62.37
2023-01-23T03:55:33.063Z,62.92
2023-01-23T03:56:32.984Z,62.06
2023-01-23T03:57:32.970Z,61.96
2023-01-23T03:58:32.355Z,59.07
2023-01-23T03:59:32.335Z,60.29
2023-01-23T04:00:32.440Z,61.73
2023-01-23T04:01:32.327Z,59.92
2023-01-23T04:02:32.353Z,62.43
2023-01-23T04:03:32.319Z,60.15
2023-01-23T04:04:32.303Z,58.92
2023-01-23T04:05:32.295Z,55.70
2023-01-23T04:06:32.292Z,57.82
2023-01-23T04:07:32.277Z,61.90
2023-01-23T04:08:32.275Z,52.74
2023-01-23T04:09:32.272Z,60.15
2023-01-23T04:10:32.268Z,59.84
2023-01-23T04:11:32.244Z,63.64
2023-01-23T04:12:32.957Z,59.31
2023-01-23T04:13:32.960Z,56.50
2023-01-23T04:14:32.225Z,57.63
2023-01-23T04:15:32.203Z,65.56
2023-01-23T04:16:34.104Z,61.21
2023-01-23T04:17:32.201Z,63.79
2023-01-23T04:18:32.197Z,65.27
2023-01-23T04:19:32.185Z,59.72
2023-01-23T04:20:32.185Z,65.07
2023-01-23T04:21:32.170Z,66.05
2023-01-23T04:22:32.160Z,65.88
2023-01-23T04:23:32.165Z,61.77
2023-01-23T04:24:32.148Z,60.75
2023-01-23T04:25:32.136Z,59.70
2023-01-23T04:26:32.148Z,64.93
2023-01-23T04:27:32.123Z,65.25
2023-01-23T04:28:32.973Z,63.60
2023-01-23T04:29:32.117Z,64.67
2023-01-23T04:30:32.260Z,62.61
2023-01-23T04:31:32.196Z,61.27
2023-01-23T04:32:32.173Z,66.27
2023-01-23T04:33:33.114Z,64.36
2023-01-23T04:34:32.071Z,60.70
2023-01-23T04:35:32.058Z,61.03
2023-01-23T04:36:32.052Z,66.52
2023-01-23T04:37:32.061Z,66.57
2023-01-23T04:38:32.035Z,64.85
2023-01-23T04:39:32.024Z,63.77
2023-01-23T04:40:32.038Z,62.92
2023-01-23T04:41:32.966Z,62.60
2023-01-23T04:42:32.033Z,65.59
2023-01-23T04:43:32.000Z,67.57
2023-01-23T04:44:32.008Z,60.33
2023-01-23T04:45:31.983Z,59.79
2023-01-23T04:46:31.969Z,64.93
2023-01-23T04:47:31.974Z,60.97
2023-01-23T04:48:32.058Z,63.84
2023-01-23T04:49:31.957Z,64.42
2023-01-23T04:50:31.955Z,65.55
2023-01-23T04:51:31.939Z,66.63
2023-01-23T04:52:31.925Z,67.57
2023-01-23T04:53:31.939Z,56.78
2023-01-23T04:54:31.924Z,65.94
2023-01-23T04:55:32.918Z,61.49
2023-01-23T04:56:31.918Z,63.61
2023-01-23T04:57:31.926Z,65.46
2023-01-23T04:58:31.896Z,65.71
2023-01-23T04:59:31.972Z,63.13
2023-01-23T05:00:31.879Z,66.74
2023-01-23T05:01:31.869Z,63.94
2023-01-23T05:02:31.872Z,65.97
2023-01-23T05:03:31.877Z,65.03
2023-01-23T05:04:31.978Z,67.02
2023-01-23T05:05:31.836Z,62.93
2023-01-23T05:06:31.823Z,64.38
2023-01-23T05:07:31.816Z,61.11
2023-01-23T05:08:31.809Z,63.59
2023-01-23T05:09:31.823Z,64.41
2023-01-23T05:10:31.796Z,64.53
2023-01-23T05:11:31.797Z,61.94
2023-01-23T05:12:31.774Z,61.27
2023-01-23T05:13:31.799Z,62.31
2023-01-23T05:14:32.494Z,61.77
2023-01-23T05:15:31.802Z,62.72
2023-01-23T05:16:31.746Z,63.57
2023-01-23T05:17:31.761Z,62.40
2023-01-23T05:18:31.731Z,64.67
2023-01-23T05:19:31.730Z,63.43
2023-01-23T05:20:32.661Z,62.60
2023-01-23T05:21:31.711Z,64.82
2023-01-23T05:22:31.704Z,63.70
2023-01-23T05:23:33.571Z,66.35
2023-01-23T05:24:31.691Z,67.29
2023-01-23T05:25:31.670Z,67.15
2023-01-23T05:26:31.669Z,67.09
2023-01-23T05:27:33.543Z,66.68
2023-01-23T05:28:31.666Z,65.43
2023-01-23T05:29:31.636Z,67.17
2023-01-23T05:30:32.574Z,66.79
2023-01-23T05:31:31.729Z,66.52
2023-01-23T05:32:31.627Z,66.03
2023-01-23T05:33:31.628Z,64.06
2023-01-23T05:34:31.605Z,63.84
2023-01-23T05:35:31.611Z,62.51
2023-01-23T05:36:31.691Z,63.83
2023-01-23T05:37:31.618Z,68.09
2023-01-23T05:38:31.599Z,68.30
2023-01-23T05:39:31.594Z,65.96
2023-01-23T05:40:31.569Z,64.49
2023-01-23T05:41:32.540Z,65.53
2023-01-23T05:42:32.487Z,66.30
2023-01-23T05:43:31.556Z,67.02
2023-01-23T05:44:31.541Z,68.03
2023-01-23T05:45:32.469Z,65.98
2023-01-23T05:46:31.597Z,65.27
2023-01-23T05:47:31.503Z,64.14
2023-01-23T05:48:31.508Z,64.49
2023-01-23T05:49:31.500Z,68.09
2023-01-23T05:50:34.502Z,69.44
2023-01-23T05:51:31.480Z,66.60
2023-01-23T05:52:31.588Z,67.12
2023-01-23T05:53:31.457Z,66.74
2023-01-23T05:54:31.449Z,66.97
2023-01-23T05:55:31.442Z,74.12
2023-01-23T05:56:31.442Z,66.51
2023-01-23T05:57:31.447Z,64.30
2023-01-23T05:58:31.424Z,66.80
2023-01-23T05:59:31.468Z,67.93
2023-01-23T06:00:31.417Z,68.45
2023-01-23T06:01:31.398Z,65.05
2023-01-23T06:02:32.390Z,68.45
2023-01-23T06:03:31.457Z,70.62
2023-01-23T06:04:31.440Z,70.27
2023-01-23T06:05:31.379Z,68.58
2023-01-23T06:06:31.367Z,68.77
2023-01-23T06:07:31.362Z,66.15
2023-01-23T06:08:31.435Z,67.29
2023-01-23T06:09:32.976Z,67.68
2023-01-23T06:10:31.976Z,65.88
2023-01-23T06:11:32.068Z,65.19
2023-01-23T06:12:31.326Z,68.78
2023-01-23T06:13:33.985Z,65.56
2023-01-23T06:14:31.314Z,66.44
2023-01-23T06:15:31.357Z,68.85
2023-01-23T06:16:31.298Z,67.84
2023-01-23T06:17:31.324Z,66.84
2023-01-23T06:18:31.259Z,67.32
2023-01-23T06:19:31.268Z,66.55
2023-01-23T06:20:31.251Z,68.64
2023-01-23T06:21:32.973Z,71.14
2023-01-23T06:22:31.986Z,67.08
2023-01-23T06:23:32.241Z,64.68
2023-01-23T06:24:31.318Z,68.67
2023-01-23T06:25:31.236Z,68.08
2023-01-23T06:26:31.202Z,69.27
2023-01-23T06:27:31.185Z,69.24
2023-01-23T06:28:31.187Z,67.87
2023-01-23T06:29:31.173Z,69.81
2023-01-23T06:30:33.047Z,68.66
2023-01-23T06:31:32.347Z,67.89
2023-01-23T06:32:31.181Z,70.34
2023-01-23T06:33:31.152Z,69.25
2023-01-23T06:34:31.128Z,67.16
2023-01-23T06:35:31.132Z,66.44
2023-01-23T06:36:31.126Z,68.54
2023-01-23T06:37:32.123Z,69.42
2023-01-23T06:38:31.103Z,68.03
2023-01-23T06:39:31.117Z,69.68
2023-01-23T06:40:31.200Z,69.47
2023-01-23T06:41:31.090Z,69.28
2023-01-23T06:42:31.083Z,69.04
2023-01-23T06:43:31.073Z,67.15
2023-01-23T06:44:31.079Z,67.65
2023-01-23T06:45:31.063Z,68.10
2023-01-23T06:46:31.073Z,66.39
2023-01-23T06:47:31.044Z,66.21
2023-01-23T06:48:31.983Z,69.46
2023-01-23T06:49:31.032Z,67.67
2023-01-23T06:50:31.036Z,67.42
2023-01-23T06:51:31.040Z,69.78
2023-01-23T06:52:31.009Z,74.40
2023-01-23T06:53:30.993Z,67.01
2023-01-23T06:54:30.997Z,69.20
2023-01-23T06:55:31.004Z,70.53
2023-01-23T06:56:33.666Z,68.09
2023-01-23T06:57:30.975Z,69.01
2023-01-23T06:58:30.975Z,68.95
2023-01-23T06:59:30.960Z,71.46
2023-01-23T07:00:30.987Z,66.94
2023-01-23T07:01:30.960Z,68.59
2023-01-23T07:02:30.978Z,69.99
2023-01-23T07:03:30.968Z,68.19
2023-01-23T07:04:31.554Z,69.21
2023-01-23T07:05:32.572Z,65.88
2023-01-23T07:06:32.571Z,68.36
2023-01-23T07:07:30.887Z,68.49
2023-01-23T07:08:31.569Z,66.10
2023-01-23T07:09:31.477Z,70.60
2023-01-23T07:10:30.858Z,65.82
2023-01-23T07:11:30.851Z,66.52
2023-01-23T07:12:32.601Z,65.05
2023-01-23T07:13:31.574Z,65.33
2023-01-23T07:14:31.515Z,69.36
2023-01-23T07:15:31.481Z,68.47
2023-01-23T07:16:30.852Z,67.10
2023-01-23T07:19:37.498Z,68.81
2023-01-23T07:20:37.490Z,65.43
2023-01-23T07:21:37.509Z,70.14
2023-01-23T07:22:37.474Z,68.35
2023-01-23T07:23:37.473Z,69.84
2023-01-23T07:24:37.457Z,64.46
2023-01-23T07:25:37.450Z,67.75
2023-01-23T07:26:37.450Z,67.74
2023-01-23T07:27:37.541Z,67.32
2023-01-23T07:28:37.434Z,69.05
2023-01-23T07:29:37.958Z,69.27
2023-01-23T07:30:38.556Z,69.29
2023-01-23T07:31:38.628Z,68.72
2023-01-23T07:32:38.497Z,69.04
2023-01-23T07:33:39.029Z,69.99
2023-01-23T07:34:38.486Z,66.77
2023-01-23T07:35:38.483Z,68.78
2023-01-23T07:36:38.462Z,66.51
2023-01-23T07:37:38.458Z,67.07
2023-01-23T07:38:38.456Z,69.36
2023-01-23T07:39:38.444Z,69.38
2023-01-23T07:40:38.439Z,66.64
2023-01-23T07:41:39.743Z,68.76
2023-01-23T07:42:38.425Z,68.53
2023-01-23T07:43:38.538Z,65.47
2023-01-23T07:44:38.409Z,69.52
2023-01-23T07:45:38.426Z,66.80
2023-01-23T07:46:39.046Z,65.84
2023-01-23T07:47:38.383Z,66.84
2023-01-23T07:48:38.384Z,67.07
2023-01-23T07:49:38.376Z,65.21
2023-01-23T07:50:38.374Z,66.01
2023-01-23T07:51:38.346Z,69.79
2023-01-23T07:52:38.352Z,68.81
2023-01-23T07:53:39.332Z,67.36
2023-01-23T07:54:38.331Z,69.28
2023-01-23T07:55:38.331Z,66.96
2023-01-23T07:56:38.359Z,67.43
2023-01-23T07:57:38.351Z,69.99
2023-01-23T07:58:40.040Z,67.67
2023-01-23T07:59:38.426Z,69.10
2023-01-23T08:00:41.131Z,69.27
2023-01-23T08:03:45.183Z,68.93
2023-01-23T08:04:46.129Z,69.17
2023-01-23T08:05:45.140Z,66.75
2023-01-23T08:06:45.101Z,68.78
2023-01-23T08:07:46.195Z,67.98
2023-01-23T08:08:46.202Z,67.40
2023-01-23T08:09:46.179Z,64.96
2023-01-23T08:10:46.215Z,67.01
2023-01-23T08:11:49.081Z,65.06
2023-01-23T08:12:46.149Z,68.09
2023-01-23T08:13:46.143Z,67.79
2023-01-23T08:14:46.233Z,66.12
2023-01-23T08:15:46.122Z,68.13
2023-01-23T08:16:46.132Z,67.54
2023-01-23T08:17:46.149Z,68.58
2023-01-23T08:18:46.101Z,69.89
2023-01-23T08:19:46.095Z,68.02
2023-01-23T08:20:47.090Z,68.40
2023-01-23T08:21:48.003Z,65.90
2023-01-23T08:22:46.072Z,68.95
2023-01-23T08:23:46.124Z,68.88
2023-01-23T08:26:53.127Z,65.84
2023-01-23T08:27:54.271Z,68.04
2023-01-23T08:28:53.111Z,65.96
2023-01-23T08:29:53.207Z,65.86
2023-01-23T08:30:53.159Z,66.92
2023-01-23T08:31:53.102Z,67.63
2023-01-23T08:32:53.074Z,68.05
2023-01-23T08:33:53.065Z,68.52
2023-01-23T08:34:53.052Z,66.89
2023-01-23T08:35:53.099Z,66.22
2023-01-23T08:36:53.079Z,69.02
2023-01-23T08:37:53.041Z,71.09
2023-01-23T08:38:53.026Z,65.74
2023-01-23T08:39:53.014Z,67.58
2023-01-23T08:40:54.780Z,67.37
2023-01-23T08:41:53.025Z,66.14
2023-01-23T08:42:52.997Z,67.42
2023-01-23T08:43:53.297Z,67.72
2023-01-23T08:44:52.979Z,66.80
2023-01-23T08:45:53.139Z,64.71
2023-01-23T08:46:54.067Z,67.32
2023-01-23T08:47:54.068Z,66.89
2023-01-23T08:48:55.809Z,68.01
2023-01-23T08:49:55.780Z,69.74
2023-01-23T08:50:54.058Z,69.53
2023-01-23T08:51:54.022Z,68.43
2023-01-23T08:52:54.008Z,67.71
2023-01-23T08:53:54.004Z,69.49
2023-01-23T08:54:54.006Z,65.25
2023-01-23T08:55:53.987Z,66.57
2023-01-23T08:56:54.018Z,66.98
2023-01-23T08:57:53.978Z,67.87
2023-01-23T08:58:53.978Z,68.51
2023-01-23T08:59:54.845Z,66.12
2023-01-23T09:00:53.994Z,68.83
2023-01-23T09:01:54.111Z,68.88
2023-01-23T09:02:53.931Z,71.04
2023-01-23T09:03:53.921Z,65.49
2023-01-23T09:04:54.374Z,65.71
2023-01-23T09:05:53.931Z,67.85
2023-01-23T09:06:53.894Z,64.90
2023-01-23T09:07:55.855Z,67.60
2023-01-23T09:08:53.879Z,66.25
2023-01-23T09:09:54.823Z,67.30
2023-01-23T09:10:53.890Z,67.75
2023-01-23T09:11:56.936Z,67.09
2023-01-23T09:12:53.863Z,67.64
2023-01-23T09:13:54.264Z,65.66
2023-01-23T09:14:54.885Z,68.68
2023-01-23T09:15:53.828Z,66.09
2023-01-23T09:16:53.923Z,67.64
2023-01-23T09:17:53.929Z,68.86
2023-01-23T09:18:53.825Z,68.21
2023-01-23T09:19:53.794Z,67.72
2023-01-23T09:20:53.785Z,69.23
2023-01-23T09:21:53.790Z,68.56
2023-01-23T09:22:53.785Z,69.85
2023-01-23T09:23:53.756Z,69.40
2023-01-23T09:24:53.748Z,67.91
2023-01-23T09:25:53.760Z,68.86
2023-01-23T09:26:53.763Z,67.47
2023-01-23T09:27:53.768Z,67.31
2023-01-23T21:26:15.214Z,57.19
2023-01-23T21:27:15.194Z,59.41
2023-01-23T21:28:15.191Z,61.25
2023-01-23T21:29:16.277Z,65.09
2023-01-23T21:30:16.272Z,63.29
2023-01-23T21:31:16.383Z,60.77
2023-01-23T21:32:16.254Z,61.81
2023-01-23T21:33:17.134Z,61.40
2023-01-23T21:34:16.245Z,62.70
2023-01-23T21:35:16.247Z,58.77
2023-01-23T21:36:16.227Z,62.10
2023-01-23T21:37:16.207Z,63.24
2023-01-23T21:38:16.641Z,62.20
2023-01-23T21:39:16.207Z,62.08
2023-01-23T21:40:16.648Z,62.46
2023-01-23T21:41:16.282Z,58.16
2023-01-23T21:42:16.165Z,60.57
2023-01-23T21:43:16.173Z,63.66
2023-01-23T21:44:16.154Z,64.49
2023-01-23T21:45:16.160Z,62.04
2023-01-23T21:46:16.163Z,59.27
2023-01-23T21:47:16.135Z,60.04
2023-01-23T21:48:16.128Z,63.71
2023-01-23T21:49:16.121Z,57.59
2023-01-23T21:50:16.117Z,62.05
2023-01-23T21:51:16.112Z,59.34
2023-01-23T21:52:16.089Z,57.06
2023-01-23T21:53:16.113Z,55.10
2023-01-23T21:54:16.085Z,60.14
2023-01-23T21:55:16.080Z,61.58
2023-01-23T21:56:16.068Z,60.50
2023-01-23T21:57:16.177Z,55.88
2023-01-23T21:58:16.051Z,56.99
2023-01-23T21:59:16.032Z,63.09
2023-01-23T22:00:16.027Z,65.87
2023-01-23T22:01:16.092Z,63.93
2023-01-23T22:02:16.147Z,59.81
2023-01-23T22:03:16.006Z,62.83
2023-01-23T22:04:16.004Z,58.96
2023-01-23T22:05:15.996Z,59.93
2023-01-23T22:06:15.981Z,56.16
2023-01-23T22:07:15.991Z,63.22
2023-01-23T22:08:15.965Z,60.79
2023-01-23T22:09:15.972Z,62.78
2023-01-23T22:10:15.956Z,62.19
2023-01-23T22:11:15.957Z,59.93
2023-01-23T22:12:15.942Z,63.56
2023-01-23T22:13:16.037Z,60.61
2023-01-23T22:14:15.926Z,60.21
2023-01-23T22:15:15.957Z,65.42
2023-01-23T22:16:15.974Z,61.82
2023-01-23T22:17:15.893Z,59.95
2023-01-23T22:18:15.900Z,60.50
2023-01-23T22:19:15.887Z,62.61
2023-01-23T22:20:15.893Z,61.32
2023-01-23T22:21:15.865Z,61.07
2023-01-23T22:22:15.857Z,61.26
2023-01-23T22:23:15.855Z,64.49
2023-01-23T22:24:15.954Z,60.23
2023-01-23T22:25:16.646Z,60.90
2023-01-23T22:26:15.831Z,58.37
2023-01-23T22:27:15.817Z,59.26
2023-01-23T22:28:15.805Z,56.61
2023-01-23T22:29:15.905Z,60.84
2023-01-23T22:30:15.805Z,62.56
2023-01-23T22:31:15.902Z,61.60
2023-01-23T22:32:15.933Z,57.93
2023-01-23T22:33:15.802Z,61.79
2023-01-23T22:34:15.775Z,59.92
2023-01-23T22:35:15.756Z,59.56
2023-01-23T22:36:16.234Z,61.57
2023-01-23T22:37:20.430Z,63.03
2023-01-23T22:38:15.970Z,64.99
2023-01-23T22:39:17.622Z,58.84
2023-01-23T22:40:15.724Z,60.03
2023-01-23T22:41:15.719Z,56.33
2023-01-23T22:42:15.701Z,65.16
2023-01-23T22:43:15.704Z,61.06
2023-01-23T22:44:15.679Z,61.67
2023-01-23T22:45:15.773Z,60.52
2023-01-23T22:46:15.661Z,57.47
2023-01-23T22:47:15.696Z,61.66
2023-01-23T22:48:15.652Z,62.19
2023-01-23T22:49:15.652Z,60.29
2023-01-23T22:50:17.011Z,59.44
2023-01-23T22:51:16.661Z,62.20
2023-01-23T22:52:15.615Z,61.54
2023-01-23T22:53:15.623Z,59.17
2023-01-23T22:54:15.610Z,65.07
2023-01-23T22:55:15.593Z,56.48
2023-01-23T22:56:15.590Z,56.94
2023-01-23T22:57:15.595Z,56.92
2023-01-23T22:58:15.565Z,58.43
2023-01-23T22:59:16.166Z,56.13
2023-01-23T23:00:15.571Z,60.23
2023-01-23T23:01:15.716Z,57.54
2023-01-23T23:02:15.545Z,54.63
2023-01-23T23:03:15.581Z,57.73
2023-01-23T23:04:15.573Z,60.45
2023-01-23T23:05:15.519Z,59.09
2023-01-23T23:06:15.515Z,62.28
2023-01-23T23:07:15.513Z,55.49
2023-01-23T23:08:15.522Z,61.27
